createdAt,value
2019-05-25T00:04:43.658Z,2.96
2019-05-25T00:09:49.927Z,3.10
2019-05-25T00:14:56.238Z,3.24
2019-05-25T00:20:02.728Z,3.45
2019-05-25T00:25:09.270Z,3.40
2019-05-25T00:30:15.595Z,3.54
2019-05-25T00:35:21.973Z,3.99
2019-05-25T00:40:28.410Z,3.78
2019-05-25T00:45:34.552Z,3.93
2019-05-25T00:50:40.949Z,4.22
2019-05-25T00:55:47.379Z,4.96
2019-05-25T01:00:53.733Z,4.41
2019-05-25T01:06:00.117Z,5.05
2019-05-25T01:11:06.584Z,4.80
2019-05-25T01:16:12.811Z,4.46
2019-05-25T01:21:19.351Z,5.14
2019-05-25T01:26:25.621Z,4.58
2019-05-25T01:31:31.949Z,4.25
2019-05-25T01:36:38.393Z,4.75
2019-05-25T01:41:44.536Z,4.93
2019-05-25T01:46:50.683Z,5.08
2019-05-25T01:51:57.105Z,4.10
2019-05-25T01:57:03.564Z,4.11
2019-05-25T02:02:10.074Z,4.24
2019-05-25T02:07:16.215Z,4.34
2019-05-25T02:12:22.781Z,4.49
2019-05-25T02:17:29.218Z,4.80
2019-05-25T02:22:35.554Z,5.08
2019-05-25T02:27:41.832Z,4.97
2019-05-25T02:32:48.317Z,5.15
2019-05-25T02:37:54.638Z,5.40
2019-05-25T02:43:01.071Z,4.91
2019-05-25T02:48:07.368Z,4.92
2019-05-25T02:53:13.625Z,5.00
2019-05-25T02:58:19.936Z,5.32
2019-05-25T03:03:26.544Z,4.98
2019-05-25T03:08:33.016Z,4.89
2019-05-25T03:13:39.484Z,4.90
2019-05-25T03:18:45.648Z,5.06
2019-05-25T03:23:52.136Z,5.48
2019-05-25T03:28:58.596Z,5.36
2019-05-25T03:34:05.418Z,5.65
2019-05-25T03:39:11.874Z,6.53
2019-05-25T03:44:18.162Z,6.10
2019-05-25T03:49:24.482Z,6.24
2019-05-25T03:54:30.736Z,5.80
2019-05-25T03:59:37.098Z,5.78
2019-05-25T04:04:43.817Z,5.67
2019-05-25T04:09:50.103Z,5.60
2019-05-25T04:15:02.390Z,5.57
2019-05-25T04:19:58.892Z,5.61
2019-05-25T04:25:05.604Z,5.66
2019-05-25T04:30:12.032Z,6.05
2019-05-25T04:35:18.834Z,5.56
2019-05-25T04:40:25.546Z,5.76
2019-05-25T04:45:33.156Z,5.53
2019-05-25T04:50:39.710Z,5.30
2019-05-25T04:55:46.927Z,5.07
2019-05-25T05:00:53.574Z,5.19
2019-05-25T05:06:00.380Z,5.22
2019-05-25T05:11:07.303Z,5.36
2019-05-25T05:16:14.107Z,4.86
2019-05-25T05:21:21.158Z,5.01
2019-05-25T05:26:27.781Z,4.36
2019-05-25T05:31:34.428Z,4.61
2019-05-25T05:36:41.422Z,4.56
2019-05-25T05:41:48.044Z,4.93
2019-05-25T05:46:55.624Z,5.05
2019-05-25T05:52:02.676Z,4.64
2019-05-25T05:57:12.283Z,4.93
2019-05-25T06:02:09.652Z,4.70
2019-05-25T06:07:16.249Z,5.07
2019-05-25T06:12:22.722Z,5.52
2019-05-25T06:17:29.408Z,5.29
2019-05-25T06:22:36.056Z,4.96
2019-05-25T06:27:42.710Z,5.39
2019-05-25T06:32:49.140Z,5.25
2019-05-25T06:37:55.847Z,5.67
2019-05-25T06:43:02.286Z,5.46
2019-05-25T06:48:12.902Z,4.56
2019-05-25T06:53:09.825Z,4.91
2019-05-25T06:58:17.446Z,4.90
2019-05-25T07:03:24.028Z,4.82
2019-05-25T07:08:30.591Z,4.08
2019-05-25T07:13:37.138Z,4.44
2019-05-25T07:18:43.717Z,4.39
2019-05-25T07:23:50.298Z,3.73
2019-05-25T07:28:56.888Z,3.90
2019-05-25T07:34:03.393Z,3.41
2019-05-25T07:39:10.341Z,3.06
2019-05-25T07:44:16.848Z,2.82
2019-05-25T07:49:23.632Z,2.61
2019-05-25T07:54:30.316Z,2.69
2019-05-25T07:59:36.789Z,2.55
2019-05-25T08:04:43.309Z,2.52
2019-05-25T08:09:50.102Z,2.19
2019-05-25T08:14:56.615Z,2.38
2019-05-25T08:20:03.287Z,2.44
2019-05-25T08:25:09.797Z,2.54
2019-05-25T08:30:16.369Z,2.83
2019-05-25T08:35:23.062Z,3.10
2019-05-25T08:40:29.707Z,2.68
2019-05-25T08:45:36.341Z,2.62
2019-05-25T08:50:42.927Z,2.71
2019-05-25T08:55:49.397Z,2.62
2019-05-25T09:00:55.947Z,2.89
2019-05-25T09:06:03.352Z,2.87
2019-05-25T09:11:10.759Z,2.62
2019-05-25T09:16:17.545Z,2.36
2019-05-25T09:21:24.911Z,2.62
2019-05-25T09:26:31.610Z,6.40
2019-05-25T09:31:37.961Z,2.26
2019-05-25T09:36:44.325Z,2.43
2019-05-25T09:41:51.015Z,2.28
2019-05-25T09:46:57.414Z,2.38
2019-05-25T09:52:04.564Z,3.74
2019-05-25T09:57:10.992Z,1.64
2019-05-25T10:02:17.390Z,4.00
2019-05-25T10:07:23.548Z,3.76
2019-05-25T10:12:30.183Z,2.09
2019-05-25T10:17:36.630Z,2.88
2019-05-25T10:22:42.874Z,2.81
2019-05-25T10:27:49.203Z,1.88
2019-05-25T10:32:57.862Z,2.00
2019-05-25T10:38:03.982Z,2.55
2019-05-25T10:43:10.297Z,2.34
2019-05-25T10:48:16.609Z,2.48
2019-05-25T10:53:23.036Z,2.28
2019-05-25T10:58:29.193Z,2.33
2019-05-25T11:03:35.436Z,3.03
2019-05-25T11:08:41.634Z,3.42
2019-05-25T11:13:47.896Z,2.76
2019-05-25T11:18:54.190Z,2.74
2019-05-25T11:24:00.596Z,2.88
2019-05-25T11:29:06.942Z,2.71
2019-05-25T11:34:13.139Z,2.42
2019-05-25T11:39:19.465Z,2.76
2019-05-25T11:44:25.621Z,2.94
2019-05-25T11:49:31.873Z,2.77
2019-05-25T11:54:38.289Z,2.89
2019-05-25T11:59:45.124Z,2.88
2019-05-25T12:04:51.693Z,2.81
2019-05-25T12:09:58.504Z,2.59
2019-05-25T12:15:04.832Z,2.55
2019-05-25T12:20:12.741Z,2.49
2019-05-25T12:25:18.887Z,2.45
2019-05-25T12:30:39.705Z,2.63
2019-05-25T12:35:31.605Z,3.11
2019-05-25T12:40:52.861Z,3.05
2019-05-25T12:45:46.182Z,3.41
2019-05-25T12:50:52.660Z,4.38
2019-05-25T12:55:59.577Z,3.47
2019-05-25T13:01:05.880Z,2.77
2019-05-25T13:06:12.671Z,2.95
2019-05-25T13:11:19.278Z,5.18
2019-05-25T13:16:25.425Z,3.15
2019-05-25T13:21:31.608Z,4.45
2019-05-25T13:26:38.283Z,2.84
2019-05-25T13:31:44.705Z,2.87
2019-05-25T13:36:51.524Z,3.39
2019-05-25T13:41:58.242Z,3.78
2019-05-25T13:47:04.657Z,4.05
2019-05-25T13:52:10.905Z,3.30
2019-05-25T13:57:17.169Z,3.12
2019-05-25T14:02:23.521Z,2.90
2019-05-25T14:07:29.855Z,3.04
2019-05-25T14:12:36.211Z,3.10
2019-05-25T14:17:42.572Z,2.85
2019-05-25T14:22:49.852Z,2.60
2019-05-25T14:27:56.476Z,2.89
2019-05-25T14:33:03.045Z,3.03
2019-05-25T14:38:09.341Z,2.99
2019-05-25T14:43:15.574Z,4.05
2019-05-25T14:48:22.190Z,3.24
2019-05-25T14:53:28.653Z,2.87
2019-05-25T14:58:35.393Z,2.70
2019-05-25T15:03:41.593Z,3.66
2019-05-25T15:08:48.040Z,2.36
2019-05-25T15:13:54.439Z,2.57
2019-05-25T15:19:01.105Z,2.44
2019-05-25T15:24:07.850Z,4.77
2019-05-25T15:29:14.188Z,4.68
2019-05-25T15:34:20.699Z,2.73
2019-05-25T15:39:27.272Z,3.35
2019-05-25T15:44:33.676Z,3.04
2019-05-25T15:49:40.268Z,2.72
2019-05-25T15:54:46.531Z,2.71
2019-05-25T15:59:56.083Z,2.99
2019-05-25T16:05:04.867Z,2.64
2019-05-25T16:10:11.082Z,2.47
2019-05-25T16:15:17.568Z,2.48
2019-05-25T16:20:23.726Z,2.55
2019-05-25T16:25:29.905Z,3.81
2019-05-25T16:30:36.055Z,2.81
2019-05-25T16:35:42.897Z,2.48
2019-05-25T16:40:49.835Z,3.09
2019-05-25T16:45:56.298Z,2.39
2019-05-25T16:51:03.114Z,2.49
2019-05-25T16:56:09.456Z,2.73
2019-05-25T17:01:18.110Z,2.76
2019-05-25T17:06:24.869Z,2.41
2019-05-25T17:11:31.548Z,2.18
2019-05-25T17:16:37.996Z,2.11
2019-05-25T17:21:44.323Z,4.16
2019-05-25T17:26:50.499Z,2.67
2019-05-25T17:31:56.869Z,2.54
2019-05-25T17:37:03.343Z,2.55
2019-05-25T17:42:09.649Z,2.41
2019-05-25T17:47:16.033Z,2.54
2019-05-25T17:52:23.056Z,3.69
2019-05-25T17:57:29.410Z,2.99
2019-05-25T18:02:35.812Z,2.93
2019-05-25T18:07:42.378Z,2.79
2019-05-25T18:12:48.707Z,2.87
2019-05-25T18:17:55.142Z,2.66
2019-05-25T18:23:01.587Z,2.61
2019-05-25T18:28:08.100Z,3.04
2019-05-25T18:33:14.393Z,2.63
2019-05-25T18:38:20.703Z,2.20
2019-05-25T18:43:27.303Z,2.31
2019-05-25T18:48:34.466Z,2.19
2019-05-25T18:53:41.197Z,2.18
2019-05-25T18:58:47.977Z,2.08
2019-05-25T19:03:54.453Z,2.44
2019-05-25T19:09:01.013Z,2.49
2019-05-25T19:14:07.415Z,2.45
2019-05-25T19:19:13.917Z,2.80
2019-05-25T19:24:20.542Z,2.32
2019-05-25T19:29:26.720Z,2.29
2019-05-25T19:34:33.033Z,2.28
2019-05-25T19:39:39.234Z,2.60
2019-05-25T19:44:45.718Z,2.43
2019-05-25T19:49:52.108Z,2.54
2019-05-25T19:54:58.613Z,2.82
2019-05-25T20:00:05.114Z,2.77
2019-05-25T20:05:16.703Z,2.74
2019-05-25T20:10:13.768Z,2.72
2019-05-25T20:15:20.300Z,2.68
2019-05-25T20:20:26.503Z,3.11
2019-05-25T20:25:32.823Z,2.90
2019-05-25T20:30:39.088Z,2.75
2019-05-25T20:35:45.469Z,3.68
2019-05-25T20:40:51.984Z,2.94
2019-05-25T20:45:58.290Z,2.61
2019-05-25T20:51:04.462Z,2.59
2019-05-25T20:56:10.904Z,2.56
2019-05-25T21:01:17.087Z,2.30
2019-05-25T21:06:23.758Z,2.43
2019-05-25T21:11:30.328Z,4.42
2019-05-25T21:16:36.587Z,2.54
2019-05-25T21:21:42.900Z,2.61
2019-05-25T21:26:49.069Z,2.28
2019-05-25T21:31:55.385Z,2.42
2019-05-25T21:37:01.645Z,2.74
2019-05-25T21:42:07.845Z,3.26
2019-05-25T21:47:14.702Z,3.83
2019-05-25T21:52:21.070Z,2.84
2019-05-25T21:57:27.317Z,2.78
2019-05-25T22:02:33.941Z,3.10
2019-05-25T22:07:40.040Z,2.96
2019-05-25T22:12:46.247Z,3.14
2019-05-25T22:18:03.401Z,3.06
2019-05-25T22:23:04.933Z,3.24
2019-05-25T22:28:01.426Z,3.49
2019-05-25T22:33:07.929Z,3.63
2019-05-25T22:38:15.057Z,3.92
2019-05-25T22:43:21.417Z,4.16
2019-05-25T22:48:32.194Z,4.38
2019-05-25T22:53:28.629Z,4.33
2019-05-25T22:58:35.264Z,4.45
2019-05-25T23:03:45.114Z,4.19
2019-05-25T23:08:57.105Z,4.41
2019-05-25T23:14:09.569Z,4.52
2019-05-25T23:18:58.545Z,4.69
2019-05-25T23:24:07.864Z,4.10
2019-05-25T23:29:14.301Z,4.48
2019-05-25T23:34:20.724Z,4.68
2019-05-25T23:39:26.900Z,4.62
2019-05-25T23:44:33.487Z,4.80
2019-05-25T23:49:40.037Z,5.30
2019-05-25T23:54:49.058Z,6.16
2019-05-25T23:59:55.584Z,5.22
